Cedar Rapids, IA (52401)

1:53 PM CDT on July 29, 2016 (GMT -0500)
Downtown Cedar Rapids - KCRG | | Change Station
Active Advisory: Special Statement

Elev 768 ft 41.98 °N, 91.66 °W | Updated 2 minutes ago

Overcast
Overcast
72.1 °F
Feels Like 72 °F
N
2.9
Wind Variable Wind from NNE
Gusts 9.0 mph

Today
High -- | Low -- °F
--% Chance of Precip.
Yesterday
High -- | Low -- °F
Precip. -- in
Pressure 29.96 in
Visibility 4.0 miles
Clouds Mostly Cloudy 1100 ft
Mostly Cloudy 2100 ft
Overcast 4200 ft
Heat Index 72 °F
Dew Point 67 °F
Humidity 83%
Rainfall 0.00 in
Snow Depth Not available.
5:57 AM 8:27 PM
Waning Crescent, 20% visible
METAR KCID 291752Z 01006KT 4SM -RA BR BKN011 BKN021 OVC042 21/21 A2997 RMK AO2 RAB16 SLP145 P0002 60002 T02110206 10228 20189 56000
Pressure 29.96 in
Visibility 4.0 miles
Clouds Mostly Cloudy 1100 ft
Mostly Cloudy 2100 ft
Overcast 4200 ft
Heat Index 72 °F
Dew Point 67 °F
Humidity 83%
Rainfall 0.00 in
Snow Depth Not available.
5:57 AM 8:27 PM
Waning Crescent, 20% visible
METAR KCID 291752Z 01006KT 4SM -RA BR BKN011 BKN021 OVC042 21/21 A2997 RMK AO2 RAB16 SLP145 P0002 60002 T02110206 10228 20189 56000

10-Day Weather Forecast

Almanac

Astronomy

Jul. 29, 2016 Rise Set
Actual Time
Civil Twilight
Nautical Twilight
Astronomical Twilight
Moon
Length of Visible Light
Length of Day
Tomorrow will be .
, % of the Moon is Illuminated

Today's Extremes

State Highs State Lows

Community

WunderPhotos

Upload Photos

1,928,393 photos uploaded!

WunderBlog® & News

Nearby

Air Quality

  Air Quality AQ Index Pollutant
Not available.

Snow Depth

Station Depth Elevation

Earthquake Activity

City Distance Mag. Time & Date
Minimum magnitude displayed is 2.5.

Coastal Water Temperatures

Place Temperature

Stations

Nearby Weather Stations

Station Location Temp. Windchill Dew Point Humidity Wind Precip. Elev Updated Type
                   

Watches & Warnings

Special Statement
Issued: 1:25 PM CDT Jul. 29, 2016 – National Weather Service

... Isolated... brief funnel clouds may be possible this afternoon...

Heating along a diffuse wind shift line is producing showers and possibly
isolated thunderstorms across the region. Low cloud bases and a weak
boundary may allow for a brief funnel clouds to develop which should
not reach the ground. Any funnel cloud that does form should not last
very long and is not expected to cause any damage since with they will
remain well above the ground


Nichols

125 PM CDT Fri Jul 29 2016

... Isolated... brief funnel clouds may be possible this afternoon...

Heating along a diffuse wind shift line is producing showers and possibly
isolated thunderstorms across the region. Low cloud bases and a weak
boundary may allow for a brief funnel clouds to develop which should
not reach the ground. Any funnel cloud that does form should not last
very long and is not expected to cause any damage since with they will
remain well above the ground


Nichols